Time;durP1;ratioP1;P1;durP2;ratioP2;P2;SDS_P1;SDS_P2;PMS_P1;PMS_P2;Temp;Humidity;BMP_temperature;BMP_pressure;BME280_temperature;BME280_humidity;BME280_pressure;Samples;Min_cycle;Max_cycle;Signal;HPM_P1;HPM_P2
2021/12/12 00:02:06;;;;;;;;;22.75;19.50;;;;;12.05;68.30;100055.81;146593;723;46010;-74
2021/12/12 00:04:59;;;;;;;;;33.50;28.50;;;;;12.08;69.08;100062.84;146602;595;46920;-73
2021/12/12 00:07:51;;;;;;;;;33.75;27.75;;;;;12.04;68.93;100073.97;146606;569;46020;-73
2021/12/12 00:10:47;;;;;;;;;13.50;11.00;;;;;12.02;68.19;100080.00;146603;600;46016;-74
2021/12/12 00:13:50;;;;;;;;;9.50;8.75;;;;;12.05;68.28;100080.94;146604;566;46020;-74
2021/12/12 00:16:44;;;;;;;;;18.00;13.75;;;;;12.04;67.72;100085.25;146605;569;45920;-74
2021/12/12 00:19:36;;;;;;;;;13.50;11.75;;;;;12.02;68.69;100080.00;146604;581;46021;-74
2021/12/12 00:22:32;;;;;;;;;15.25;13.00;;;;;11.98;69.23;100078.13;146601;682;47014;-74
2021/12/12 00:25:25;;;;;;;;;8.00;6.75;;;;;11.92;68.68;100080.50;146605;602;46021;-75
2021/12/12 00:28:21;;;;;;;;;10.75;6.00;;;;;11.86;68.69;100095.00;146603;614;46016;-75
2021/12/12 00:31:15;;;;;;;;;2.25;2.25;;;;;11.80;68.85;100101.69;146593;577;46010;-75
2021/12/12 00:34:09;;;;;;;;;3.50;3.25;;;;;11.75;69.55;100111.03;146604;599;46920;-75
2021/12/12 00:37:02;;;;;;;;;5.00;4.75;;;;;11.66;69.73;100108.09;146603;580;46020;-75
2021/12/12 00:39:58;;;;;;;;;8.50;7.00;;;;;11.55;69.39;100112.88;146604;674;46012;-75
2021/12/12 00:42:51;;;;;;;;;6.50;5.75;;;;;11.47;69.42;100116.03;146605;569;46010;-77
2021/12/12 00:45:44;;;;;;;;;7.50;5.50;;;;;11.41;70.35;100114.09;146603;582;46016;-76
2021/12/12 00:48:37;;;;;;;;;21.75;17.50;;;;;11.41;70.64;100108.91;146605;630;45021;-76
2021/12/12 00:51:39;;;;;;;;;12.50;12.25;;;;;11.44;70.75;100101.22;146605;569;46010;-75
2021/12/12 00:54:31;;;;;;;;;9.75;9.00;;;;;11.47;70.87;100090.97;146593;574;47916;-76
2021/12/12 00:57:27;;;;;;;;;16.00;13.00;;;;;11.50;71.35;100087.59;146603;596;46016;-76
2021/12/12 01:00:20;;;;;;;;;9.75;9.75;;;;;11.50;71.74;100098.88;146593;637;46010;-78
2021/12/12 01:03:14;;;;;;;;;10.50;8.00;;;;;11.50;71.19;100109.25;146602;587;46017;-79
2021/12/12 01:06:11;;;;;;;;;42.50;35.75;;;;;11.48;70.67;100115.22;146604;585;47010;-73
2021/12/12 01:09:08;;;;;;;;;9.00;8.25;;;;;11.42;71.12;100113.25;146606;647;45021;-73
2021/12/12 01:12:05;;;;;;;;;3.00;2.75;;;;;11.35;69.82;100121.66;146605;565;47012;-75
2021/12/12 01:15:03;;;;;;;;;0.00;0.00;;;;;11.30;70.44;100139.63;146600;736;46016;-71
2021/12/12 01:17:59;;;;;;;;;2.00;1.00;;;;;11.25;70.90;100137.69;146605;674;46021;-73
2021/12/12 01:20:55;;;;;;;;;0.75;0.00;;;;;11.22;71.69;100142.78;146603;649;46016;-72
2021/12/12 01:23:56;;;;;;;;;1.00;0.00;;;;;11.21;71.42;100141.84;146606;651;46010;-84
2021/12/12 01:26:49;;;;;;;;;0.00;0.00;;;;;11.20;71.83;100149.59;146604;628;46016;-77
2021/12/12 01:29:43;;;;;;;;;1.00;0.00;;;;;11.15;71.79;100143.31;146599;565;46010;-77
2021/12/12 01:32:35;;;;;;;;;0.00;0.00;;;;;11.14;72.23;100159.72;146596;571;47868;-77
2021/12/12 01:35:28;;;;;;;;;6.25;6.25;;;;;11.09;72.55;100160.44;146607;654;45026;-74
2021/12/12 01:41:40;;;;;;;;;7.25;6.75;;;;;11.07;71.61;100117.97;146604;647;46020;-80
2021/12/12 01:44:50;;;;;;;;;2.50;2.00;;;;;11.09;70.90;100116.34;146599;589;46016;-81
2021/12/12 01:47:53;;;;;;;;;4.00;2.25;;;;;11.16;71.48;100137.34;146606;661;46010;-80
2021/12/12 01:50:54;;;;;;;;;4.75;4.25;;;;;11.21;71.27;100139.25;146604;587;46919;-77
2021/12/12 01:53:50;;;;;;;;;9.75;8.50;;;;;11.23;71.86;100132.44;146605;571;46021;-78
2021/12/12 01:56:54;;;;;;;;;10.00;9.50;;;;;11.18;71.26;100133.06;146604;614;46014;-74
2021/12/12 01:59:47;;;;;;;;;5.75;5.00;;;;;11.16;71.51;100138.22;146595;598;45020;-78
2021/12/12 02:02:40;;;;;;;;;1.75;1.00;;;;;11.19;70.07;100127.97;146596;569;47920;-79
2021/12/12 02:05:36;;;;;;;;;0.50;0.50;;;;;11.23;69.34;100132.44;146605;600;46020;-78
2021/12/12 02:08:30;;;;;;;;;1.25;1.25;;;;;11.30;69.09;100129.25;146606;626;46013;-78
2021/12/12 02:11:28;;;;;;;;;14.00;11.00;;;;;11.37;69.28;100127.78;146603;581;46020;-80
2021/12/12 02:14:24;;;;;;;;;14.00;13.50;;;;;11.36;69.37;100133.78;146602;597;46016;-77
2021/12/12 02:17:32;;;;;;;;;9.00;6.50;;;;;11.32;69.42;100131.91;146603;601;46021;-76
2021/12/12 02:21:04;;;;;;;;;5.00;5.00;;;;;11.33;69.34;100131.06;146604;618;46012;-77
2021/12/12 02:24:36;;;;;;;;;4.00;3.00;;;;;11.35;69.21;100119.06;146607;671;46011;-77
2021/12/12 02:36:58;;;;;;;;;1.25;0.00;;;;;11.32;69.13;100095.56;146603;724;46022;-74
2021/12/12 02:39:50;;;;;;;;;1.00;1.00;;;;;11.35;69.28;100098.28;146605;578;46016;-73
2021/12/12 02:42:43;;;;;;;;;1.00;1.00;;;;;11.38;69.69;100102.72;146604;609;46020;-73
2021/12/12 02:45:36;;;;;;;;;5.75;3.50;;;;;11.40;68.91;100112.34;146604;620;46012;-73
2021/12/12 02:48:32;;;;;;;;;2.00;2.00;;;;;11.42;69.44;100113.25;146607;608;46010;-75
2021/12/12 02:51:24;;;;;;;;;3.00;3.00;;;;;11.45;68.29;100115.09;146606;681;46920;-76
2021/12/12 02:54:17;;;;;;;;;29.25;23.25;;;;;11.48;68.39;100105.69;146603;581;46012;-75
2021/12/12 02:57:10;;;;;;;;;14.00;12.75;;;;;11.53;68.64;100111.09;146602;633;46919;-72
2021/12/12 03:00:02;;;;;;;;;6.00;4.75;;;;;11.54;67.79;100123.22;146592;614;46013;-72
2021/12/12 03:03:00;;;;;;;;;8.75;7.00;;;;;11.53;66.82;100130.12;146605;606;45017;-71
2021/12/12 03:05:52;;;;;;;;;8.00;8.00;;;;;11.54;66.49;100137.09;146603;580;46020;-73
2021/12/12 03:08:47;;;;;;;;;9.00;8.25;;;;;11.61;67.45;100132.13;146602;600;46016;-76
2021/12/12 03:11:40;;;;;;;;;12.25;10.50;;;;;11.54;68.01;100108.53;146606;675;45050;-75
2021/12/12 03:14:34;;;;;;;;;17.75;14.00;;;;;11.62;67.76;100116.62;146604;583;46920;-75
2021/12/12 03:17:27;;;;;;;;;6.75;4.75;;;;;11.55;68.50;100120.66;146601;617;46021;-73
2021/12/12 03:20:30;;;;;;;;;4.25;3.25;;;;;11.43;68.94;100120.25;146606;582;46033;-75
2021/12/12 03:23:42;;;;;;;;;3.25;2.25;;;;;10.18;68.87;99919.09;146609;605;46011;-76
2021/12/12 03:26:35;;;;;;;;;5.75;4.50;;;;;11.30;69.21;100115.37;146604;599;46917;-75
2021/12/12 03:29:29;;;;;;;;;10.50;9.25;;;;;11.30;68.88;100146.53;146598;593;46010;-76
2021/12/12 03:32:24;;;;;;;;;12.00;9.00;;;;;11.29;69.40;100161.22;146604;579;46920;-80
2021/12/12 03:35:16;;;;;;;;;16.50;13.25;;;;;11.29;69.31;100157.75;146603;612;46020;-80
2021/12/12 03:38:10;;;;;;;;;10.75;10.00;;;;;11.20;69.46;100147.00;146602;679;46017;-80
2021/12/12 03:41:05;;;;;;;;;9.00;7.00;;;;;11.09;70.16;100160.44;146603;604;46020;-80
2021/12/12 03:44:03;;;;;;;;;6.00;4.00;;;;;11.03;70.29;100174.88;146599;621;46016;-77
2021/12/12 03:46:59;;;;;;;;;20.75;18.50;;;;;11.02;70.21;100183.47;146598;563;47010;-80
2021/12/12 03:49:52;;;;;;;;;26.25;22.00;;;;;11.02;70.32;100178.28;146603;610;46016;-79
2021/12/12 03:52:45;;;;;;;;;38.25;33.50;;;;;11.06;70.37;100182.78;146606;638;46010;-79
2021/12/12 03:55:38;;;;;;;;;50.50;41.00;;;;;11.06;70.13;100173.28;146602;628;46016;-79
2021/12/12 03:58:31;;;;;;;;;15.00;13.75;;;;;11.00;69.81;100169.56;146592;586;46021;-75
2021/12/12 04:01:44;;;;;;;;;7.50;7.00;;;;;10.91;69.82;100177.84;146603;650;46014;-75
2021/12/12 04:04:40;;;;;;;;;23.75;21.25;;;;;10.81;70.03;100178.28;146604;628;46020;-76
2021/12/12 04:07:33;;;;;;;;;8.25;4.75;;;;;10.72;69.60;100194.38;146603;667;46014;-76
2021/12/12 04:10:26;;;;;;;;;5.75;4.75;;;;;10.64;70.68;100203.50;146601;569;46033;-76
2021/12/12 04:13:18;;;;;;;;;3.00;2.25;;;;;10.57;70.51;100192.00;146607;564;46012;-82
2021/12/12 04:16:11;;;;;;;;;33.50;27.75;;;;;10.55;70.60;100203.13;146607;650;46010;-80
2021/12/12 04:19:03;;;;;;;;;46.75;38.50;;;;;10.54;70.79;100202.25;146601;572;46016;-77
2021/12/12 04:21:55;;;;;;;;;28.50;22.25;;;;;10.55;70.15;100211.78;146606;564;46010;-77
2021/12/12 04:24:51;;;;;;;;;31.75;26.25;;;;;10.57;70.37;100222.22;146602;614;46016;-76
2021/12/12 04:27:43;;;;;;;;;29.25;27.25;;;;;10.60;70.99;100225.84;146597;603;45020;-76
2021/12/12 04:30:35;;;;;;;;;43.75;35.25;;;;;10.69;70.85;100232.25;146603;646;46014;-76
2021/12/12 04:33:28;;;;;;;;;41.00;32.75;;;;;10.73;70.83;100242.81;146606;624;46010;-79
2021/12/12 04:36:21;;;;;;;;;30.00;25.00;;;;;10.76;70.57;100245.53;146604;582;46017;-77
2021/12/12 04:39:29;;;;;;;;;33.75;29.25;;;;;10.81;70.55;100245.72;146602;669;46020;-74
2021/12/12 04:42:26;;;;;;;;;34.00;27.75;;;;;10.85;71.46;100240.72;146605;604;46919;-73
2021/12/12 04:46:07;;;;;;;;;34.25;29.75;;;;;9.70;70.78;100037.94;146602;602;46021;-73
2021/12/12 04:53:03;;;;;;;;;23.50;20.75;;;;;9.89;70.84;100087.13;146608;602;45021;-76
2021/12/12 04:56:01;;;;;;;;;27.50;24.00;;;;;11.00;71.56;100269.03;146604;582;46016;-75
2021/12/12 04:59:05;;;;;;;;;26.00;25.25;;;;;11.03;71.41;100260.50;146591;564;47915;-73
2021/12/12 05:02:14;;;;;;;;;28.50;24.00;;;;;11.07;71.42;100265.88;146606;635;46919;-71
2021/12/12 05:05:16;;;;;;;;;23.75;23.00;;;;;11.08;72.56;100248.59;146607;577;46010;-79
2021/12/12 05:08:14;;;;;;;;;26.75;23.25;;;;;11.03;72.33;100235.44;146606;565;46016;-81
2021/12/12 05:11:12;;;;;;;;;19.75;19.00;;;;;10.96;72.38;100235.97;146602;566;46020;-86
2021/12/12 05:14:11;;;;;;;;;32.50;24.50;;;;;10.96;73.28;100261.91;146604;570;46920;-84
2021/12/12 05:17:17;;;;;;;;;28.25;22.50;;;;;11.00;72.83;100281.13;146606;604;46010;-72
2021/12/12 05:20:15;;;;;;;;;29.00;25.25;;;;;11.02;72.76;100277.75;146600;567;46017;-72
2021/12/12 05:23:11;;;;;;;;;32.00;28.50;;;;;11.07;72.11;100293.53;146603;563;46020;-72
2021/12/12 05:26:24;;;;;;;;;32.00;30.75;;;;;8.87;72.20;99901.47;146598;619;46920;-81
2021/12/12 05:29:31;;;;;;;;;27.50;25.00;;;;;11.09;72.12;100277.19;146593;610;46012;-80
2021/12/12 05:32:25;;;;;;;;;9.25;6.25;;;;;11.06;72.73;100264.09;146605;603;46016;-81
2021/12/12 05:35:20;;;;;;;;;14.25;10.00;;;;;11.16;73.97;100261.91;146606;575;46010;-79
2021/12/12 05:38:13;;;;;;;;;4.75;4.00;;;;;11.27;74.60;100283.97;146603;589;46010;-79
2021/12/12 05:41:07;;;;;;;;;8.00;4.25;;;;;11.37;74.24;100304.31;146604;616;46020;-79
2021/12/12 05:44:02;;;;;;;;;5.00;4.00;;;;;11.47;74.26;100290.00;146605;580;46012;-79
2021/12/12 05:46:57;;;;;;;;;4.00;3.00;;;;;11.55;73.58;100294.63;146605;676;46012;-80
2021/12/12 05:49:50;;;;;;;;;2.00;2.00;;;;;11.63;72.12;100288.88;146605;626;46920;-79
2021/12/12 05:52:42;;;;;;;;;9.25;7.50;;;;;10.77;70.91;100108.97;146604;567;46010;-80
2021/12/12 05:55:37;;;;;;;;;3.00;2.00;;;;;11.83;71.21;100264.56;146604;744;47014;-81
2021/12/12 05:58:30;;;;;;;;;3.00;3.00;;;;;11.90;70.21;100261.44;146596;567;46010;-83
2021/12/12 06:01:23;;;;;;;;;6.00;4.00;;;;;11.96;68.95;100268.56;146604;745;46014;-82
2021/12/12 06:04:16;;;;;;;;;4.00;4.00;;;;;12.00;68.64;100268.75;146608;616;45020;-86
2021/12/12 06:07:12;;;;;;;;;1.75;1.75;;;;;12.07;66.40;100287.16;146604;585;46016;-77
2021/12/12 06:10:11;;;;;;;;;1.50;1.50;;;;;12.14;66.50;100295.25;146606;590;45029;-81
2021/12/12 06:13:03;;;;;;;;;3.00;2.75;;;;;12.24;64.67;100294.78;146595;564;48916;-80
2021/12/12 06:15:59;;;;;;;;;3.25;3.25;;;;;12.34;64.62;100296.00;146606;612;46010;-78
2021/12/12 06:18:57;;;;;;;;;3.00;1.25;;;;;12.43;64.98;100304.16;146607;576;45016;-79
2021/12/12 06:21:55;;;;;;;;;4.00;3.50;;;;;12.46;64.71;100301.66;146602;652;46021;-80
2021/12/12 06:24:47;;;;;;;;;5.75;4.50;;;;;12.47;65.07;100311.22;146603;634;47014;-80
2021/12/12 06:27:40;;;;;;;;;2.00;1.00;;;;;12.47;62.27;100311.22;146596;696;46020;-83
2021/12/12 06:30:32;;;;;;;;;1.50;1.50;;;;;12.49;61.41;100319.06;146603;564;46016;-84
2021/12/12 06:33:26;;;;;;;;;1.00;1.00;;;;;12.51;61.33;100326.94;146607;695;46012;-91
2021/12/12 06:36:19;;;;;;;;;0.00;0.00;;;;;12.52;59.07;100339.09;146606;606;46012;-87
2021/12/12 06:39:14;;;;;;;;;1.75;1.75;;;;;12.60;60.07;100337.69;146607;641;46020;-85
2021/12/12 06:42:08;;;;;;;;;5.00;5.00;;;;;12.68;62.14;100338.87;146604;623;46920;-85
2021/12/12 06:45:00;;;;;;;;;5.25;4.50;;;;;12.71;61.20;100351.97;146609;615;46010;-84
2021/12/12 06:47:53;;;;;;;;;13.25;8.00;;;;;12.73;61.02;100354.63;146601;605;46014;-87
2021/12/12 06:50:48;;;;;;;;;17.00;11.25;;;;;12.76;60.10;100362.53;146604;569;46010;-86
2021/12/12 06:53:44;;;;;;;;;7.00;5.00;;;;;12.83;61.47;100368.00;146602;652;46035;-75
2021/12/12 06:56:36;;;;;;;;;4.75;3.75;;;;;12.89;61.14;100367.34;146595;731;46020;-78
2021/12/12 06:59:31;;;;;;;;;2.00;2.00;;;;;12.09;62.18;100218.84;146605;564;46012;-77
2021/12/12 07:02:26;;;;;;;;;4.75;3.25;;;;;13.03;61.09;100373.06;146605;636;46010;-78
2021/12/12 07:05:28;;;;;;;;;8.50;8.50;;;;;13.08;61.55;100374.09;146602;602;46920;-80
2021/12/12 07:08:24;;;;;;;;;4.00;3.00;;;;;13.13;60.90;100382.97;146607;566;45915;-81
2021/12/12 07:11:20;;;;;;;;;4.50;3.00;;;;;13.20;61.20;100384.06;146604;569;46016;-81
2021/12/12 07:14:15;;;;;;;;;0.75;0.75;;;;;13.22;60.54;100387.62;146604;659;46021;-80
2021/12/12 07:17:09;;;;;;;;;1.00;1.00;;;;;13.31;62.45;100387.97;146604;615;46014;-81
2021/12/12 07:20:02;;;;;;;;;7.00;5.25;;;;;13.36;61.35;100384.72;146604;631;46032;-83
2021/12/12 07:22:55;;;;;;;;;11.50;7.75;;;;;13.41;60.89;100382.25;146607;729;46016;-77
2021/12/12 07:25:48;;;;;;;;;12.75;9.00;;;;;13.45;61.50;100388.44;146598;617;46028;-78
2021/12/12 07:28:41;;;;;;;;;5.25;5.00;;;;;13.47;61.68;100392.87;146603;610;46017;-79
2021/12/12 07:31:38;;;;;;;;;4.00;4.00;;;;;13.50;61.38;100395.59;146605;563;46020;-77
2021/12/12 07:34:31;;;;;;;;;6.00;2.00;;;;;13.51;59.85;100386.91;146603;570;46012;-77
2021/12/12 07:37:24;;;;;;;;;18.00;15.25;;;;;13.60;60.37;100386.34;146604;706;46010;-78
2021/12/12 07:40:17;;;;;;;;;2.50;0.00;;;;;13.69;59.49;100386.66;146602;580;46016;-75
2021/12/12 07:43:10;;;;;;;;;3.00;2.00;;;;;13.97;59.46;100395.38;146606;573;46021;-76
2021/12/12 07:46:03;;;;;;;;;1.00;1.00;;;;;14.47;58.23;100409.13;146602;624;46016;-73
2021/12/12 07:48:57;;;;;;;;;1.00;1.00;;;;;14.99;58.52;100410.69;146603;653;46020;-77
2021/12/12 07:51:50;;;;;;;;;1.00;0.33;;;;;15.53;57.66;100423.47;146602;570;46016;-80
2021/12/12 07:54:44;;;;;;;;;1.00;1.00;;;;;16.00;57.01;100423.81;146599;637;46010;-77
2021/12/12 07:57:37;;;;;;;;;1.67;1.00;;;;;16.30;55.26;100428.91;146605;627;46920;-83
2021/12/12 08:00:30;;;;;;;;;1.33;1.33;;;;;16.44;54.10;100423.97;146605;622;46010;-83
2021/12/12 08:03:27;;;;;;;;;2.50;1.25;;;;;16.59;54.02;100421.72;146605;729;46012;-80
2021/12/12 08:06:19;;;;;;;;;4.33;0.67;;;;;16.75;52.31;100422.94;146605;604;46021;-80
2021/12/12 08:09:14;;;;;;;;;4.00;1.67;;;;;16.87;53.03;100434.56;146604;694;46919;-77
2021/12/12 08:12:07;;;;;;;;;4.00;2.50;;;;;16.95;52.54;100422.50;146602;647;46020;-78
2021/12/12 08:15:00;;;;;;;;;2.00;1.33;;;;;16.89;50.72;100415.41;146606;564;46012;-80
2021/12/12 08:17:53;;;;;;;;;1.00;1.00;;;;;16.83;50.41;100405.69;146606;595;47010;-80
2021/12/12 08:20:49;;;;;;;;;7.50;3.00;;;;;16.76;50.44;100410.75;146603;595;46920;-78
2021/12/12 08:23:44;;;;;;;;;2.33;0.67;;;;;16.54;51.33;100409.38;146600;578;46010;-78
2021/12/12 08:26:38;;;;;;;;;1.00;1.00;;;;;16.56;53.64;100419.03;146604;641;46920;-77
2021/12/12 08:29:31;;;;;;;;;3.00;1.33;;;;;16.65;52.52;100414.84;146610;621;45020;-74
2021/12/12 08:32:24;;;;;;;;;2.00;2.00;;;;;16.73;51.64;100424.63;146608;575;46012;-75
2021/12/12 08:35:20;;;;;;;;;3.67;1.67;;;;;16.82;51.34;100413.50;146598;702;48916;-75
2021/12/12 08:38:15;;;;;;;;;1.33;0.33;;;;;16.87;51.80;100419.72;146604;647;46016;-75
2021/12/12 08:41:10;;;;;;;;;4.00;0.00;;;;;16.83;52.85;100425.75;146604;581;46020;-84
2021/12/12 08:44:02;;;;;;;;;1.50;1.50;;;;;16.82;52.62;100422.25;146602;597;46016;-83
2021/12/12 08:46:57;;;;;;;;;1.00;0.00;;;;;16.83;52.98;100431.88;146606;572;46010;-89
2021/12/12 08:49:51;;;;;;;;;0.33;0.33;;;;;16.89;53.02;100448.56;146604;564;46012;-88
2021/12/12 08:52:48;;;;;;;;;0.00;0.00;;;;;16.84;51.33;100456.31;146597;570;46020;-86
2021/12/12 08:55:44;;;;;;;;;0.00;0.00;;;;;16.99;52.73;100453.13;146605;591;46017;-82
2021/12/12 08:58:38;;;;;;;;;0.00;0.00;;;;;17.21;50.65;100464.94;146604;569;47012;-77
2021/12/12 09:01:30;;;;;;;;;0.00;0.00;;;;;17.35;50.31;100467.81;146606;709;46012;-79
2021/12/12 09:04:23;;;;;;;;;0.00;0.00;;;;;17.35;51.77;100460.84;146602;578;46021;-77
2021/12/12 09:07:24;;;;;;;;;0.00;0.00;;;;;17.35;50.99;100463.47;146603;660;46016;-79
2021/12/12 09:10:29;;;;;;;;;4.00;1.00;;;;;17.33;52.39;100454.72;146604;572;46020;-81
2021/12/12 09:13:29;;;;;;;;;2.00;0.67;;;;;17.32;51.71;100458.19;146606;628;46012;-84
2021/12/12 09:16:41;;;;;;;;;0.00;0.00;;;;;17.44;53.00;100447.03;146607;615;46020;-79
2021/12/12 09:19:53;;;;;;;;;1.00;0.00;;;;;17.41;50.37;100457.47;146606;569;46013;-79
2021/12/12 09:23:00;;;;;;;;;0.00;0.00;;;;;17.45;53.79;100460.19;146596;647;46020;-79
2021/12/12 09:26:01;;;;;;;;;0.67;0.00;;;;;17.65;53.66;100457.91;146605;641;46920;-74
2021/12/12 09:29:07;;;;;;;;;0.67;0.00;;;;;17.98;50.33;100460.28;146606;581;46020;-84
2021/12/12 09:32:15;;;;;;;;;0.00;0.00;;;;;18.10;53.29;100456.09;146603;614;46015;-79
2021/12/12 09:35:38;;;;;;;;;0.00;0.00;;;;;17.45;52.65;100346.59;146606;619;46010;-79
2021/12/12 09:38:55;;;;;;;;;0.00;0.00;;;;;16.95;50.05;100288.94;146607;593;46012;-77
2021/12/12 09:42:27;;;;;;;;;0.33;0.00;;;;;16.57;49.95;100271.63;146604;564;46011;-75
2021/12/12 09:46:17;;;;;;;;;0.67;0.00;;;;;16.45;52.02;100286.16;146606;612;46016;-78
2021/12/12 09:53:45;;;;;;;;;2.00;1.00;;;;;18.04;53.40;100442.88;146604;638;47014;-85
2021/12/12 09:57:01;;;;;;;;;4.00;3.00;;;;;18.11;51.53;100455.25;146595;600;47010;-81
2021/12/12 10:00:12;;;;;;;;;0.00;0.00;;;;;17.91;49.89;100458.44;146607;642;46012;-77
2021/12/12 10:03:53;;;;;;;;;0.00;0.00;;;;;16.76;51.04;100275.50;146606;623;45021;-78
2021/12/12 10:07:48;;;;;;;;;1.67;0.67;;;;;16.98;53.90;100278.53;146602;575;46016;-86
2021/12/12 10:11:11;;;;;;;;;0.00;0.00;;;;;17.00;49.13;100282.91;146598;577;46021;-74
2021/12/12 10:14:53;;;;;;;;;3.67;2.33;;;;;18.19;52.94;100458.88;146604;643;46917;-80
2021/12/12 10:18:29;;;;;;;;;0.67;0.67;;;;;17.55;52.46;100288.22;146605;569;47008;-83
2021/12/12 10:21:53;;;;;;;;;2.00;2.00;;;;;18.77;52.74;100456.25;146605;582;46012;-82
2021/12/12 10:25:16;;;;;;;;;5.00;2.50;;;;;17.65;48.61;100263.03;146603;681;46022;-81
2021/12/12 10:28:43;;;;;;;;;1.67;0.00;;;;;18.65;50.84;100463.06;146605;582;46012;-77
2021/12/12 10:32:03;;;;;;;;;2.00;1.67;;;;;18.36;51.09;100459.16;146598;572;46020;-89
2021/12/12 10:35:17;;;;;;;;;0.00;0.00;;;;;16.36;52.61;100146.47;146605;582;46016;-75
2021/12/12 10:38:19;;;;;;;;;1.33;1.33;;;;;18.29;52.89;100466.06;146606;600;46010;-77
2021/12/12 10:41:38;;;;;;;;;2.33;1.67;;;;;18.56;49.36;100464.69;146603;572;46483;-76
2021/12/12 10:44:39;;;;;;;;;3.00;3.00;;;;;18.84;51.19;100455.47;146606;578;45020;-74
2021/12/12 10:47:52;;;;;;;;;3.00;3.00;;;;;19.09;51.03;100454.91;146601;575;47014;-75
2021/12/12 10:51:01;;;;;;;;;2.67;1.67;;;;;19.30;49.18;100456.94;146606;593;46010;-74
2021/12/12 10:54:13;;;;;;;;;0.00;0.00;;;;;19.36;48.04;100462.25;146604;603;46017;-74
2021/12/12 10:57:26;;;;;;;;;0.67;0.67;;;;;19.49;48.04;100457.13;146602;607;46916;-75
2021/12/12 11:00:24;;;;;;;;;4.00;2.33;;;;;19.59;46.29;100454.63;146605;578;46034;-73
2021/12/12 11:03:37;;;;;;;;;1.33;1.33;;;;;19.63;48.95;100452.91;146597;571;46014;-74
2021/12/12 11:06:40;;;;;;;;;2.67;2.00;;;;;19.75;48.12;100450.44;146604;599;46030;-74
2021/12/12 11:09:58;;;;;;;;;5.00;4.00;;;;;19.92;48.75;100442.69;146606;631;45021;-73
2021/12/12 11:13:33;;;;;;;;;0.00;0.00;;;;;20.02;47.76;100449.78;146603;589;46012;-75
2021/12/12 11:16:42;;;;;;;;;2.00;1.00;;;;;20.14;47.49;100438.47;146603;593;47010;-75
2021/12/12 11:20:17;;;;;;;;;1.67;0.00;;;;;20.26;47.80;100433.31;146605;585;46012;-75
2021/12/12 11:23:38;;;;;;;;;2.00;1.33;;;;;20.39;43.12;100441.28;146608;587;46010;-76
2021/12/12 11:26:57;;;;;;;;;1.33;1.00;;;;;20.58;46.42;100445.81;146608;596;46918;-75
2021/12/12 11:30:08;;;;;;;;;2.67;2.33;;;;;20.66;46.44;100437.97;146604;630;46020;-78
2021/12/12 11:33:04;;;;;;;;;0.67;0.67;;;;;20.82;43.23;100436.31;146605;593;46010;-79
2021/12/12 11:35:59;;;;;;;;;5.00;3.50;;;;;21.04;45.12;100432.00;146595;568;46010;-81
2021/12/12 11:39:30;;;;;;;;;2.33;0.33;;;;;21.09;44.73;100439.06;146603;596;46016;-80
2021/12/12 11:42:41;;;;;;;;;1.00;0.00;;;;;20.99;45.19;100432.84;146605;607;46020;-77
2021/12/12 11:45:43;;;;;;;;;1.33;1.00;;;;;20.78;44.82;100427.50;146603;607;47012;-77
2021/12/12 11:49:20;;;;;;;;;2.00;2.00;;;;;19.61;46.30;100289.81;146604;595;46012;-78
2021/12/12 11:52:17;;;;;;;;;6.75;5.25;;;;;20.38;43.29;100439.53;146604;581;46920;-79
2021/12/12 11:55:59;;;;;;;;;7.00;5.00;;;;;19.44;50.31;100287.91;146604;585;47010;-79
2021/12/12 11:59:20;;;;;;;;;0.33;0.33;;;;;20.71;44.78;100445.00;146602;580;47016;-80
2021/12/12 12:03:02;;;;;;;;;1.33;0.33;;;;;20.85;46.87;100449.50;146604;583;47010;-79
2021/12/12 12:06:34;;;;;;;;;2.00;2.00;;;;;20.99;42.58;100435.47;146602;640;47014;-79
2021/12/12 12:09:49;;;;;;;;;1.33;0.67;;;;;20.92;44.36;100430.19;146596;595;46021;-78
2021/12/12 12:13:17;;;;;;;;;0.33;0.00;;;;;20.82;42.86;100433.66;146603;593;46012;-78
2021/12/12 12:16:38;;;;;;;;;0.00;0.00;;;;;20.85;40.69;100423.16;146605;591;47010;-79
2021/12/12 12:20:08;;;;;;;;;1.33;1.33;;;;;20.79;42.88;100428.38;146606;720;46033;-78
2021/12/12 12:27:20;;;;;;;;;2.33;2.33;;;;;20.16;41.77;100435.88;146604;612;47014;-80
2021/12/12 12:30:55;;;;;;;;;2.00;2.00;;;;;19.09;43.71;100276.22;146603;590;47010;-78
2021/12/12 12:34:50;;;;;;;;;1.67;1.67;;;;;18.08;44.51;100124.63;146602;570;46919;-77
2021/12/12 12:38:18;;;;;;;;;2.00;2.00;;;;;20.00;44.69;100448.91;146607;572;46010;-78
2021/12/12 12:41:57;;;;;;;;;3.00;3.00;;;;;19.67;43.43;100443.34;146604;573;46017;-79
2021/12/12 12:45:37;;;;;;;;;3.00;1.00;;;;;18.14;45.53;100284.75;146598;577;46010;-75
2021/12/12 12:49:19;;;;;;;;;4.67;4.67;;;;;17.46;44.60;100265.34;146605;638;46012;-75
2021/12/12 12:53:17;;;;;;;;;4.00;2.00;;;;;17.36;46.99;100271.31;146606;641;46010;-74
2021/12/12 12:56:45;;;;;;;;;1.00;1.00;;;;;18.96;47.61;100441.63;146603;564;46920;-74
2021/12/12 13:00:13;;;;;;;;;1.33;1.33;;;;;19.58;46.77;100441.44;146603;602;47010;-76
2021/12/12 13:03:45;;;;;;;;;9.00;6.75;;;;;20.11;46.75;100442.84;146604;566;46012;-74
2021/12/12 13:07:23;;;;;;;;;0.67;0.67;;;;;20.49;42.82;100433.44;146608;606;46010;-75
2021/12/12 13:10:19;;;;;;;;;2.00;1.67;;;;;20.64;41.74;100437.97;146604;632;46016;-75
2021/12/12 13:13:30;;;;;;;;;2.00;2.00;;;;;20.77;41.31;100446.81;146596;655;47916;-74
2021/12/12 13:17:11;;;;;;;;;0.00;0.00;;;;;20.68;41.28;100450.25;146604;648;46014;-76
2021/12/12 13:20:34;;;;;;;;;2.00;2.00;;;;;20.59;42.32;100455.50;146597;634;46020;-75
2021/12/12 13:24:27;;;;;;;;;3.00;3.00;;;;;20.56;39.33;100457.22;146605;640;46016;-74
2021/12/12 13:28:04;;;;;;;;;0.00;0.00;;;;;20.39;45.83;100462.34;146605;594;46010;-78
2021/12/12 13:31:35;;;;;;;;;0.00;0.00;;;;;19.85;42.51;100467.19;146605;578;46015;-77
2021/12/12 13:34:48;;;;;;;;;0.33;0.33;;;;;19.29;42.23;100473.56;146605;581;46020;-78
2021/12/12 13:38:00;;;;;;;;;1.00;1.00;;;;;18.78;44.15;100477.28;146605;640;46016;-78
2021/12/12 13:41:19;;;;;;;;;0.00;0.00;;;;;18.30;42.76;100475.69;146606;630;46020;-78
2021/12/12 13:44:35;;;;;;;;;0.67;0.67;;;;;17.91;43.60;100474.16;146606;590;46918;-75
2021/12/12 13:48:05;;;;;;;;;3.00;2.00;;;;;17.66;46.42;100478.06;146609;600;46010;-77
2021/12/12 13:51:27;;;;;;;;;7.00;5.75;;;;;17.53;46.50;100482.16;146603;575;46016;-78
2021/12/12 13:55:05;;;;;;;;;42.25;33.75;;;;;16.44;47.56;100314.06;146595;597;46010;-76
2021/12/12 13:58:31;;;;;;;;;39.00;32.00;;;;;17.36;49.43;100483.59;146604;569;46012;-75
2021/12/12 14:02:09;;;;;;;;;4.75;4.75;;;;;17.33;48.76;100485.28;146604;564;46012;-77
2021/12/12 14:05:25;;;;;;;;;1.67;1.33;;;;;17.28;49.83;100478.19;146605;613;46016;-76
2021/12/12 14:08:24;;;;;;;;;1.67;0.33;;;;;17.24;48.23;100478.09;146606;631;46021;-77
2021/12/12 14:11:26;;;;;;;;;4.00;4.00;;;;;17.21;49.51;100488.53;146606;563;46919;-76
2021/12/12 14:14:42;;;;;;;;;8.50;6.25;;;;;17.16;50.04;100485.78;146604;639;46020;-76
2021/12/12 14:17:49;;;;;;;;;7.50;6.50;;;;;17.13;50.47;100490.09;146601;709;46016;-76
2021/12/12 14:20:51;;;;;;;;;7.75;7.75;;;;;17.08;50.45;100488.28;146604;652;45028;-76
2021/12/12 14:23:44;;;;;;;;;11.25;11.25;;;;;17.05;51.02;100488.19;146603;618;46920;-76
2021/12/12 14:26:42;;;;;;;;;17.50;15.25;;;;;17.04;51.82;100496.91;146594;577;45020;-76
2021/12/12 14:29:36;;;;;;;;;24.75;20.75;;;;;17.00;51.71;100500.31;146604;633;46015;-76
2021/12/12 14:32:38;;;;;;;;;36.00;31.50;;;;;16.97;52.61;100504.59;146602;613;46020;-77
2021/12/12 14:35:51;;;;;;;;;50.00;39.50;;;;;16.93;53.21;100506.28;146605;634;46016;-78
2021/12/12 14:38:45;;;;;;;;;36.50;29.75;;;;;16.92;50.02;100509.75;146605;712;46020;-77